createdAt,value
2023-01-11T00:00:56.753Z,100736.69
2023-01-11T00:03:23.847Z,100731.38
2023-01-11T00:05:51.305Z,100725.94
2023-01-11T00:08:19.184Z,100723.28
2023-01-11T00:10:46.277Z,100725.88
2023-01-11T00:13:14.536Z,100730.19
2023-01-11T00:15:41.696Z,100720.22
2023-01-11T00:18:09.865Z,100722.91
2023-01-11T00:20:41.536Z,100710.41
2023-01-11T00:23:09.130Z,100727.22
2023-01-11T00:25:36.715Z,100717.34
2023-01-11T00:28:04.451Z,100708.41
2023-01-11T00:30:31.758Z,100717.16
2023-01-11T00:33:00.811Z,100702.97
2023-01-11T00:35:29.522Z,100707.16
2023-01-11T00:37:56.613Z,100706.44
2023-01-11T00:40:24.218Z,100707.00
2023-01-11T00:43:09.825Z,100704.13
2023-01-11T00:45:55.707Z,100704.13
2023-01-11T00:48:23.069Z,100703.25
2023-01-11T00:50:55.075Z,100698.72
2023-01-11T00:53:22.168Z,100695.22
2023-01-11T00:55:49.235Z,100693.50
2023-01-11T00:58:16.327Z,100688.06
2023-01-11T01:00:43.448Z,100701.28
2023-01-11T01:03:10.456Z,100694.03
2023-01-11T01:05:39.526Z,100686.00
2023-01-11T01:08:07.287Z,100684.28
2023-01-11T01:10:34.393Z,100690.38
2023-01-11T01:13:20.315Z,100685.06
2023-01-11T01:15:47.429Z,100695.69
2023-01-11T01:18:14.498Z,100693.91
2023-01-11T01:20:41.665Z,100699.31
2023-01-11T01:23:08.813Z,100699.16
2023-01-11T01:25:37.856Z,100695.44
2023-01-11T01:28:05.170Z,100698.09
2023-01-11T01:30:33.541Z,100704.28
2023-01-11T01:33:00.698Z,100702.34
2023-01-11T01:35:27.794Z,100709.38
2023-01-11T01:37:54.853Z,100702.34
2023-01-11T01:40:22.658Z,100693.38
2023-01-11T01:42:54.570Z,100700.34
2023-01-11T01:45:27.494Z,100694.09
2023-01-11T01:48:01.425Z,100688.78
2023-01-11T01:50:47.190Z,100696.66
2023-01-11T01:53:20.704Z,100694.09
2023-01-11T01:55:56.755Z,100697.34
2023-01-11T01:58:38.665Z,100698.31
2023-01-11T02:01:25.182Z,100702.75
2023-01-11T02:03:53.195Z,100706.41
2023-01-11T02:06:23.114Z,100697.44
2023-01-11T02:09:00.373Z,100694.63
2023-01-11T02:11:31.624Z,100705.22
2023-01-11T02:14:06.471Z,100702.38
2023-01-11T02:16:34.323Z,100700.72
2023-01-11T02:19:01.843Z,100709.63
2023-01-11T02:22:04.203Z,100707.66
2023-01-11T02:25:09.565Z,100707.69
2023-01-11T02:28:04.592Z,100707.53
2023-01-11T02:30:52.203Z,100706.78
2023-01-11T02:34:00.278Z,100712.97
2023-01-11T02:37:11.724Z,100692.34
2023-01-11T02:39:52.476Z,100695.78
2023-01-11T02:43:15.299Z,100695.75
2023-01-11T02:46:16.875Z,100701.13
2023-01-11T02:48:59.602Z,100696.66
2023-01-11T02:51:53.877Z,100702.69
2023-01-11T02:54:23.486Z,100711.72
2023-01-11T02:56:57.774Z,100706.28
2023-01-11T02:59:32.457Z,100726.69
2023-01-11T03:01:59.821Z,100722.19
2023-01-11T03:04:31.010Z,100738.22
2023-01-11T03:07:37.890Z,100742.50
2023-01-11T03:10:30.668Z,100730.81
2023-01-11T03:13:41.686Z,100734.47
2023-01-11T03:16:41.823Z,100728.28
2023-01-11T03:19:42.902Z,100736.13
2023-01-11T03:22:23.072Z,100746.00
2023-01-11T03:25:14.360Z,100744.31
2023-01-11T03:28:03.004Z,100752.97
2023-01-11T03:30:46.501Z,100744.88
2023-01-11T03:33:33.186Z,100741.41
2023-01-11T03:36:16.644Z,100736.84
2023-01-11T03:38:54.337Z,100739.56
2023-01-11T03:41:27.640Z,100734.19
2023-01-11T03:43:57.729Z,100742.13
2023-01-11T03:46:31.379Z,100740.44
2023-01-11T03:49:39.539Z,100731.47
2023-01-11T03:52:12.435Z,100736.81
2023-01-11T03:54:41.112Z,100743.78
2023-01-11T03:57:19.615Z,100741.13
2023-01-11T03:59:46.938Z,100745.66
2023-01-11T04:02:28.051Z,100744.78
2023-01-11T04:04:55.389Z,100753.69
2023-01-11T04:07:22.501Z,100758.19
2023-01-11T04:09:49.504Z,100751.91
2023-01-11T04:12:16.643Z,100748.25
2023-01-11T04:14:43.693Z,100757.97
2023-01-11T04:17:10.745Z,100760.84
2023-01-11T04:19:38.994Z,100770.47
2023-01-11T04:22:06.053Z,100771.25
2023-01-11T04:24:33.136Z,100768.69
2023-01-11T04:27:00.227Z,100779.38
2023-01-11T04:29:27.345Z,100786.44
2023-01-11T04:31:54.500Z,100787.19
2023-01-11T04:34:21.539Z,100788.09
2023-01-11T04:36:48.602Z,100788.97
2023-01-11T04:39:15.696Z,100786.44
2023-01-11T04:42:01.200Z,100781.19
2023-01-11T04:44:28.304Z,100790.09
2023-01-11T04:46:55.301Z,100796.28
2023-01-11T04:49:22.381Z,100789.31
2023-01-11T04:51:49.448Z,100788.28
2023-01-11T04:54:17.355Z,100789.09
2023-01-11T04:56:44.447Z,100804.31
2023-01-11T04:59:11.459Z,100806.09
2023-01-11T05:01:38.522Z,100807.88
2023-01-11T05:04:05.653Z,100803.53
2023-01-11T05:06:33.696Z,100800.81
2023-01-11T05:09:00.775Z,100815.97
2023-01-11T05:11:27.879Z,100809.63
2023-01-11T05:13:54.991Z,100815.97
2023-01-11T05:16:24.704Z,100817.84
2023-01-11T05:18:57.981Z,100809.09
2023-01-11T05:21:31.563Z,100821.47
2023-01-11T05:24:00.827Z,100821.53
2023-01-11T05:26:35.151Z,100818.91
2023-01-11T05:29:06.694Z,100821.56
2023-01-11T05:31:36.269Z,100832.31
2023-01-11T05:34:03.631Z,100832.44
2023-01-11T05:36:30.733Z,100835.09
2023-01-11T05:38:57.860Z,100840.47
2023-01-11T05:41:27.458Z,100837.91
2023-01-11T05:44:14.278Z,100837.88
2023-01-11T05:46:43.688Z,100832.69
2023-01-11T05:49:13.001Z,100839.03
2023-01-11T05:51:41.007Z,100842.44
2023-01-11T05:54:13.044Z,100855.97
2023-01-11T05:56:42.241Z,100860.38
2023-01-11T05:59:09.807Z,100858.81
2023-01-11T06:01:37.369Z,100855.19
2023-01-11T06:04:04.978Z,100856.88
2023-01-11T06:06:33.609Z,100847.22
2023-01-11T06:09:00.703Z,100854.59
2023-01-11T06:11:27.833Z,100862.63
2023-01-11T06:13:54.934Z,100861.78
2023-01-11T06:16:23.536Z,100865.44
2023-01-11T06:18:52.959Z,100878.81
2023-01-11T06:21:21.087Z,100885.97
2023-01-11T06:23:53.838Z,100881.63
2023-01-11T06:26:22.880Z,100889.63
2023-01-11T06:28:50.688Z,100892.34
2023-01-11T06:31:18.416Z,100902.19
2023-01-11T06:33:46.361Z,100901.38
2023-01-11T06:36:14.711Z,100900.50
2023-01-11T06:38:42.773Z,100903.44
2023-01-11T06:41:11.430Z,100903.41
2023-01-11T06:43:41.621Z,100904.28
2023-01-11T06:46:14.818Z,100914.31
2023-01-11T06:48:42.431Z,100913.53
2023-01-11T06:51:12.735Z,100918.84
2023-01-11T06:53:42.112Z,100921.47
2023-01-11T06:56:17.518Z,100934.78
2023-01-11T06:58:47.041Z,100928.69
2023-01-11T07:01:19.458Z,100930.63
2023-01-11T07:03:46.607Z,100936.84
2023-01-11T07:06:13.992Z,100940.50
2023-01-11T07:08:42.419Z,100949.53
2023-01-11T07:11:09.941Z,100940.75
2023-01-11T07:13:37.064Z,100945.19
2023-01-11T07:16:04.381Z,100947.84
2023-01-11T07:18:33.392Z,100952.19
2023-01-11T07:21:00.483Z,100972.78
2023-01-11T07:23:27.603Z,100971.13
2023-01-11T07:25:55.359Z,100978.34
2023-01-11T07:28:22.405Z,100983.78
2023-01-11T07:30:58.080Z,100988.28
2023-01-11T07:33:26.565Z,101010.72
2023-01-11T07:35:53.945Z,101012.59
2023-01-11T07:38:21.710Z,101008.25
2023-01-11T07:40:48.798Z,101014.53
2023-01-11T07:43:16.389Z,101017.28
2023-01-11T07:45:51.178Z,101014.03
2023-01-11T07:48:26.584Z,101014.88
2023-01-11T07:50:54.852Z,101014.09
2023-01-11T07:53:25.354Z,101018.66
2023-01-11T07:55:52.695Z,101026.72
2023-01-11T07:58:19.733Z,101028.56
2023-01-11T08:00:46.935Z,101034.91
2023-01-11T08:03:14.222Z,101038.56
2023-01-11T08:05:41.470Z,101057.19
2023-01-11T08:08:08.843Z,101052.63
2023-01-11T08:10:36.155Z,101049.22
2023-01-11T08:13:22.103Z,101057.19
2023-01-11T08:15:49.254Z,101066.13
2023-01-11T08:18:17.234Z,101067.13
2023-01-11T08:20:45.518Z,101073.31
2023-01-11T08:23:12.615Z,101070.81
2023-01-11T08:25:39.797Z,101060.31
2023-01-11T08:28:08.253Z,101071.81
2023-01-11T08:30:36.547Z,101084.25
2023-01-11T08:33:05.050Z,101086.16
2023-01-11T08:35:36.798Z,101099.34
2023-01-11T08:38:03.843Z,101105.63
2023-01-11T08:40:30.901Z,101115.38
2023-01-11T08:42:58.086Z,101117.22
2023-01-11T08:45:25.939Z,101125.19
2023-01-11T08:47:53.877Z,101131.53
2023-01-11T08:50:22.255Z,101129.72
2023-01-11T08:52:51.551Z,101133.31
2023-01-11T08:55:19.901Z,101138.59
2023-01-11T08:57:47.493Z,101136.03
2023-01-11T09:00:15.554Z,101146.69
2023-01-11T09:02:42.719Z,101143.19
2023-01-11T09:05:10.213Z,101142.31
2023-01-11T09:07:37.547Z,101140.53
2023-01-11T09:10:05.714Z,101147.63
2023-01-11T09:12:33.094Z,101150.28
2023-01-11T09:15:00.511Z,101152.09
2023-01-11T09:17:27.724Z,101157.38
2023-01-11T09:19:55.728Z,101156.53
2023-01-11T09:22:22.915Z,101157.41
2023-01-11T09:24:50.049Z,101159.19
2023-01-11T09:27:17.342Z,101155.66
2023-01-11T09:29:44.582Z,101162.66
2023-01-11T09:32:11.845Z,101160.88
2023-01-11T09:34:39.214Z,101158.13
2023-01-11T09:37:07.023Z,101171.28
2023-01-11T09:39:35.110Z,101162.31
2023-01-11T09:42:21.897Z,101159.56
2023-01-11T09:44:54.346Z,101165.56
2023-01-11T09:47:40.738Z,101168.09
2023-01-11T09:50:26.086Z,101169.88
2023-01-11T09:53:03.413Z,101173.66
2023-01-11T09:55:36.996Z,101165.72
2023-01-11T09:58:51.432Z,101165.41
2023-01-11T10:01:22.367Z,101172.09
2023-01-11T10:04:24.284Z,101171.56
2023-01-11T10:07:43.464Z,101170.94
2023-01-11T10:18:31.914Z,101184.91
2023-01-11T10:18:32.895Z,101193.56
2023-01-11T10:20:40.747Z,101188.16
2023-01-11T10:23:26.008Z,101180.91
2023-01-11T10:25:58.606Z,101182.00
2023-01-11T10:28:43.178Z,101175.41
2023-01-11T10:31:30.478Z,101177.03
2023-01-11T10:34:04.750Z,101183.72
2023-01-11T10:37:11.621Z,101186.56
2023-01-11T10:40:31.243Z,101190.50
2023-01-11T10:43:09.185Z,101196.94
2023-01-11T10:45:50.309Z,101192.09
2023-01-11T10:48:31.969Z,101189.91
2023-01-11T10:51:27.954Z,101188.56
2023-01-11T10:54:02.413Z,101186.13
2023-01-11T10:57:02.487Z,101194.53
2023-01-11T11:00:08.027Z,101198.25
2023-01-11T11:02:52.566Z,101191.13
2023-01-11T11:05:50.520Z,101200.44
2023-01-11T11:08:42.134Z,101206.91
2023-01-11T11:11:18.564Z,101195.94
2023-01-11T11:14:02.648Z,101196.56
2023-01-11T11:17:09.598Z,101194.25
2023-01-11T11:19:36.748Z,101193.59
2023-01-11T11:22:03.877Z,101201.47
2023-01-11T11:24:39.143Z,101198.56
2023-01-11T11:27:32.265Z,101188.38
2023-01-11T11:29:59.447Z,101184.97
2023-01-11T11:32:32.011Z,101193.56
2023-01-11T11:34:59.312Z,101197.28
2023-01-11T11:37:42.209Z,101204.81
2023-01-11T11:40:31.849Z,101193.81
2023-01-11T11:43:17.086Z,101185.19
2023-01-11T11:45:53.563Z,101190.91
2023-01-11T11:48:22.098Z,101190.69
2023-01-11T11:50:51.270Z,101200.06
2023-01-11T11:53:48.129Z,101194.38
2023-01-11T11:56:23.317Z,101205.75
2023-01-11T11:58:51.184Z,101204.25
2023-01-11T12:01:26.600Z,101218.72
2023-01-11T12:04:02.665Z,101216.63
2023-01-11T12:06:31.108Z,101226.13
2023-01-11T12:09:02.113Z,101229.72
2023-01-11T12:11:36.154Z,101215.50
2023-01-11T12:14:11.180Z,101214.16
2023-01-11T12:16:43.287Z,101221.75
2023-01-11T12:19:40.324Z,101228.31
2023-01-11T12:22:22.225Z,101229.19
2023-01-11T12:25:08.205Z,101235.16
2023-01-11T12:28:17.509Z,101226.41
2023-01-11T12:31:12.330Z,101228.19
2023-01-11T12:34:49.785Z,101212.88
2023-01-11T12:37:37.227Z,101216.69
2023-01-11T12:40:43.845Z,101203.28
2023-01-11T12:43:48.189Z,101213.16
2023-01-11T12:46:32.063Z,101206.22
2023-01-11T12:49:40.827Z,101220.47
2023-01-11T12:52:39.153Z,101219.81
2023-01-11T12:55:40.572Z,101228.00
2023-01-11T12:58:33.234Z,101233.47
2023-01-11T13:01:41.221Z,101233.59
2023-01-11T13:04:32.867Z,101245.22
2023-01-11T13:07:34.509Z,101234.63
2023-01-11T13:10:40.089Z,101238.00
2023-01-11T13:13:21.831Z,101240.41
2023-01-11T13:16:01.126Z,101232.59
2023-01-11T13:18:45.440Z,101237.09
2023-01-11T13:21:28.291Z,101231.94
2023-01-11T13:24:02.300Z,101232.91
2023-01-11T13:26:40.598Z,101228.56
2023-01-11T13:29:36.499Z,101219.00
2023-01-11T13:32:11.725Z,101219.03
2023-01-11T13:35:13.979Z,101221.66
2023-01-11T13:37:58.777Z,101210.91
2023-01-11T13:40:41.509Z,101204.66
2023-01-11T13:43:19.887Z,101213.38
2023-01-11T13:45:56.065Z,101200.09
2023-01-11T13:48:31.667Z,101197.38
2023-01-11T13:51:31.687Z,101197.28
2023-01-11T13:54:20.575Z,101191.94
2023-01-11T13:57:00.394Z,101185.72
2023-01-11T13:59:36.825Z,101191.97
2023-01-11T14:02:38.691Z,101191.34
2023-01-11T14:05:19.827Z,101194.03
2023-01-11T14:08:11.833Z,101197.66
2023-01-11T14:11:38.863Z,101196.72
2023-01-11T14:14:50.584Z,101211.66
2023-01-11T14:18:08.937Z,101200.31
2023-01-11T14:20:57.514Z,101207.53
2023-01-11T14:23:52.814Z,101206.81
2023-01-11T14:26:58.756Z,101219.44
2023-01-11T14:29:43.368Z,101223.13
2023-01-11T14:32:29.582Z,101215.19
2023-01-11T14:35:37.754Z,101215.25
2023-01-11T14:38:30.191Z,101208.97
2023-01-11T14:41:27.553Z,101216.06
2023-01-11T14:44:15.222Z,101202.72
2023-01-11T14:47:26.745Z,101199.34
2023-01-11T14:50:17.425Z,101204.84
2023-01-11T14:52:46.365Z,101202.31
2023-01-11T14:55:25.444Z,101205.97
2023-01-11T14:58:25.578Z,101205.22
2023-01-11T15:00:55.772Z,101207.97
2023-01-11T15:03:22.800Z,101211.59
2023-01-11T15:06:01.693Z,101206.41
2023-01-11T15:08:46.411Z,101211.81
2023-01-11T15:11:41.696Z,101207.47
2023-01-11T15:14:32.534Z,101211.06
2023-01-11T15:17:21.378Z,101209.34
2023-01-11T15:19:51.337Z,101203.31
2023-01-11T15:22:33.484Z,101206.91
2023-01-11T15:25:23.536Z,101213.09
2023-01-11T15:27:52.116Z,101214.00
2023-01-11T15:30:31.181Z,101219.34
2023-01-11T15:33:20.087Z,101213.13
2023-01-11T15:35:56.179Z,101220.25
2023-01-11T15:38:57.590Z,101231.78
2023-01-11T15:42:15.458Z,101215.81
2023-01-11T15:45:29.144Z,101228.31
2023-01-11T15:48:08.216Z,101233.78
2023-01-11T15:51:07.755Z,101230.28
2023-01-11T15:53:56.419Z,101236.50
2023-01-11T15:57:11.980Z,101241.06
2023-01-11T16:00:22.142Z,101236.69
2023-01-11T16:03:33.568Z,101253.50
2023-01-11T16:06:57.979Z,101245.59
2023-01-11T16:09:55.219Z,101255.13
2023-01-11T16:12:56.304Z,101256.00
2023-01-11T16:15:40.302Z,101245.34
2023-01-11T16:18:29.453Z,101240.91
2023-01-11T16:21:09.215Z,101244.41
2023-01-11T16:23:36.496Z,101240.84
2023-01-11T16:26:04.884Z,101243.63
2023-01-11T16:28:34.125Z,101240.16
2023-01-11T16:31:05.081Z,101231.38
2023-01-11T16:33:34.654Z,101241.19
2023-01-11T16:36:17.137Z,101239.34
2023-01-11T16:39:01.900Z,101231.47
2023-01-11T16:41:39.014Z,101237.69
2023-01-11T16:44:09.225Z,101243.06
2023-01-11T16:47:04.009Z,101231.63
2023-01-11T16:49:31.127Z,101242.31
2023-01-11T16:52:02.261Z,101238.78
2023-01-11T16:54:33.780Z,101242.34
2023-01-11T16:57:02.352Z,101239.72
2023-01-11T16:59:30.843Z,101243.25
2023-01-11T17:02:05.319Z,101248.53
2023-01-11T17:04:34.990Z,101236.16
2023-01-11T17:07:19.380Z,101236.16
2023-01-11T17:09:46.451Z,101240.50
2023-01-11T17:12:26.280Z,101233.50
2023-01-11T17:15:49.504Z,101234.38
2023-01-11T17:18:17.893Z,101230.81
2023-01-11T17:20:45.041Z,101228.97
2023-01-11T17:23:16.972Z,101240.44
2023-01-11T17:25:45.258Z,101248.34
2023-01-11T17:28:19.460Z,101230.69
2023-01-11T17:30:50.347Z,101228.94
2023-01-11T17:33:32.960Z,101221.75
2023-01-11T17:36:01.437Z,101219.91
2023-01-11T17:38:29.737Z,101211.13
2023-01-11T17:40:58.507Z,101211.03
2023-01-11T17:43:48.543Z,101214.56
2023-01-11T17:46:24.404Z,101217.25
2023-01-11T17:48:57.254Z,101218.13
2023-01-11T17:51:33.178Z,101197.66
2023-01-11T17:54:00.729Z,101203.03
2023-01-11T17:56:34.808Z,101191.41
2023-01-11T17:59:22.036Z,101194.22
2023-01-11T18:01:54.961Z,101184.38
2023-01-11T18:04:23.417Z,101185.28
2023-01-11T18:06:54.093Z,101179.94
2023-01-11T18:09:29.244Z,101183.31
2023-01-11T18:12:21.453Z,101178.81
2023-01-11T18:14:58.284Z,101178.91
2023-01-11T18:17:42.104Z,101180.75
2023-01-11T18:20:15.399Z,101183.25
2023-01-11T18:22:54.535Z,101177.84
2023-01-11T18:25:23.121Z,101175.22
2023-01-11T18:27:51.243Z,101166.44
2023-01-11T18:30:33.586Z,101162.97
2023-01-11T18:33:04.875Z,101156.88
2023-01-11T18:35:43.625Z,101158.66
2023-01-11T18:38:19.769Z,101148.97
2023-01-11T18:40:48.452Z,101156.03
2023-01-11T18:43:15.998Z,101171.13
2023-01-11T18:45:43.087Z,101154.38
2023-01-11T18:48:14.935Z,101150.97
2023-01-11T18:50:44.463Z,101142.19
2023-01-11T18:53:17.448Z,101143.97
2023-01-11T18:55:45.963Z,101145.75
2023-01-11T18:58:13.180Z,101148.47
2023-01-11T19:00:41.313Z,101145.75
2023-01-11T19:03:10.610Z,101132.56
2023-01-11T19:05:38.006Z,101120.19
2023-01-11T19:08:05.333Z,101128.97
2023-01-11T19:10:33.025Z,101128.13
2023-01-11T19:13:01.470Z,101128.13
2023-01-11T19:15:28.668Z,101122.03
2023-01-11T19:17:55.904Z,101118.44
2023-01-11T19:20:22.994Z,101106.97
2023-01-11T19:22:50.178Z,101106.25
2023-01-11T19:25:17.294Z,101089.50
2023-01-11T19:27:44.468Z,101092.19
2023-01-11T19:30:12.629Z,101079.88
2023-01-11T19:32:39.903Z,101073.63
2023-01-11T19:35:08.369Z,101074.56
2023-01-11T19:37:37.885Z,101072.00
2023-01-11T19:40:05.766Z,101067.59
2023-01-11T19:42:32.915Z,101071.94
2023-01-11T19:45:00.011Z,101069.44
2023-01-11T19:47:27.199Z,101073.84
2023-01-11T19:49:56.451Z,101070.34
2023-01-11T19:52:23.595Z,101069.47
2023-01-11T19:54:51.278Z,101064.16
2023-01-11T19:57:20.703Z,101072.97
2023-01-11T19:59:49.869Z,101072.16
2023-01-11T20:02:20.158Z,101073.16
2023-01-11T20:04:47.704Z,101088.16
2023-01-11T20:07:16.166Z,101060.00
2023-01-11T20:09:43.723Z,101062.66
2023-01-11T20:12:13.081Z,101041.56
2023-01-11T20:14:40.547Z,101051.28
2023-01-11T20:17:08.361Z,101049.50
2023-01-11T20:19:35.653Z,101061.06
2023-01-11T20:22:03.051Z,101066.31
2023-01-11T20:24:31.194Z,101043.28
2023-01-11T20:27:00.858Z,101065.41
2023-01-11T20:29:28.392Z,101057.44
2023-01-11T20:31:58.225Z,101063.59
2023-01-11T20:34:30.107Z,101059.22
2023-01-11T20:36:57.233Z,101064.53
2023-01-11T20:39:25.845Z,101071.63
2023-01-11T20:41:53.918Z,101065.44
2023-01-11T20:44:24.908Z,101076.94
2023-01-11T20:46:53.916Z,101059.22
2023-01-11T20:49:25.459Z,101082.25
2023-01-11T20:51:52.683Z,101053.13
2023-01-11T20:54:19.897Z,101073.41
2023-01-11T20:56:47.232Z,101061.94
2023-01-11T20:59:17.336Z,101065.44
2023-01-11T21:01:44.574Z,101054.81
2023-01-11T21:04:13.133Z,101060.09
2023-01-11T21:06:43.999Z,101066.25
2023-01-11T21:09:14.725Z,101065.31
2023-01-11T21:11:42.545Z,101068.94
2023-01-11T21:14:12.015Z,101067.97
2023-01-11T21:16:44.184Z,101076.84
2023-01-11T21:19:13.891Z,101070.72
2023-01-11T21:21:41.949Z,101074.25
2023-01-11T21:24:14.179Z,101070.72
2023-01-11T21:26:42.458Z,101064.53
2023-01-11T21:29:11.700Z,101068.06
2023-01-11T21:31:41.194Z,101059.22
2023-01-11T21:34:11.364Z,101047.72
2023-01-11T21:36:38.578Z,101061.88
2023-01-11T21:39:05.843Z,101041.53
2023-01-11T21:41:52.857Z,101045.00
2023-01-11T21:44:22.170Z,101058.25
2023-01-11T21:46:50.147Z,101057.34
2023-01-11T21:49:17.416Z,101060.03
2023-01-11T21:51:44.515Z,101061.72
2023-01-11T21:54:14.768Z,101048.44
2023-01-11T21:56:41.903Z,101058.16
2023-01-11T21:59:09.315Z,101045.81
2023-01-11T22:01:38.167Z,101044.94
2023-01-11T22:04:07.539Z,101039.59
2023-01-11T22:06:40.262Z,101032.41
2023-01-11T22:09:10.429Z,101030.66
2023-01-11T22:11:37.706Z,101031.47
2023-01-11T22:14:06.652Z,101022.66
2023-01-11T22:16:35.373Z,101022.53
2023-01-11T22:19:03.352Z,101035.81
2023-01-11T22:21:30.471Z,101033.13
2023-01-11T22:23:59.337Z,101045.50
2023-01-11T22:26:29.909Z,101044.50
2023-01-11T22:29:12.348Z,101036.53
2023-01-11T22:31:42.439Z,101040.97
2023-01-11T22:34:10.982Z,101032.97
2023-01-11T22:36:38.425Z,101033.88
2023-01-11T22:39:05.754Z,101029.44
2023-01-11T22:41:32.879Z,101039.16
2023-01-11T22:43:59.950Z,101034.75
2023-01-11T22:46:28.659Z,101050.63
2023-01-11T22:48:55.881Z,101035.66
2023-01-11T22:51:25.864Z,101055.94
2023-01-11T22:53:55.183Z,101047.94
2023-01-11T22:56:25.753Z,101049.63
2023-01-11T22:58:53.985Z,101061.19
2023-01-11T23:01:38.009Z,101044.44
2023-01-11T23:04:07.828Z,101057.66
2023-01-11T23:06:38.787Z,101062.06
2023-01-11T23:09:15.972Z,101066.47
2023-01-11T23:12:02.677Z,101058.56
2023-01-11T23:14:32.727Z,101072.59
2023-01-11T23:17:08.441Z,101077.00
2023-01-11T23:19:38.706Z,101066.28
2023-01-11T23:22:07.591Z,101065.50
2023-01-11T23:24:37.295Z,101058.34
2023-01-11T23:27:04.741Z,101052.94
2023-01-11T23:29:31.936Z,101062.66
2023-01-11T23:31:59.169Z,101067.16
2023-01-11T23:34:26.312Z,101071.59
2023-01-11T23:36:53.402Z,101079.53
2023-01-11T23:39:20.679Z,101060.84
2023-01-11T23:42:06.303Z,101057.31
2023-01-11T23:44:33.728Z,101048.53
2023-01-11T23:47:19.240Z,101044.97
2023-01-11T23:49:46.766Z,101065.22
2023-01-11T23:52:13.984Z,101061.72
2023-01-11T23:54:41.184Z,101061.63
2023-01-11T23:57:09.229Z,101043.97
2023-01-11T23:59:36.302Z,101055.44
